createdAt,value
2023-06-13T00:00:25.922Z,97802.63
2023-06-13T00:02:57.252Z,97803.91
2023-06-13T00:05:26.701Z,97806.50
2023-06-13T00:07:55.268Z,97813.31
2023-06-13T00:10:24.390Z,97815.63
2023-06-13T00:12:53.489Z,97815.31
2023-06-13T00:15:22.117Z,97808.34
2023-06-13T00:17:54.877Z,97815.38
2023-06-13T00:20:25.914Z,97820.84
2023-06-13T00:22:57.336Z,97822.94
2023-06-13T00:25:25.991Z,97815.00
2023-06-13T00:27:55.145Z,97823.97
2023-06-13T00:30:24.006Z,97820.19
2023-06-13T00:32:56.011Z,97823.59
2023-06-13T00:35:25.075Z,97825.91
2023-06-13T00:37:58.320Z,97817.06
2023-06-13T00:40:28.372Z,97814.91
2023-06-13T00:42:58.812Z,97809.28
2023-06-13T00:45:31.368Z,97805.28
2023-06-13T00:48:05.236Z,97801.72
2023-06-13T00:50:37.094Z,97803.75
2023-06-13T00:53:11.730Z,97803.66
2023-06-13T00:55:42.071Z,97808.84
2023-06-13T00:58:13.385Z,97800.78
2023-06-13T01:00:45.189Z,97803.91
2023-06-13T01:03:17.700Z,97803.81
2023-06-13T01:05:49.059Z,97807.41
2023-06-13T01:08:23.151Z,97808.09
2023-06-13T01:11:02.594Z,97805.59
2023-06-13T01:13:38.109Z,97807.91
2023-06-13T01:16:17.639Z,97799.16
2023-06-13T01:18:54.577Z,97800.69
2023-06-13T01:21:26.007Z,97805.53
2023-06-13T01:24:03.975Z,97811.28
2023-06-13T01:26:55.376Z,97814.41
2023-06-13T01:29:25.283Z,97817.59
2023-06-13T01:31:58.429Z,97815.09
2023-06-13T01:34:28.733Z,97812.59
2023-06-13T01:36:58.294Z,97808.81
2023-06-13T01:39:27.765Z,97811.91
2023-06-13T01:41:58.259Z,97803.88
2023-06-13T01:44:26.670Z,97808.72
2023-06-13T01:47:08.779Z,97804.72
2023-06-13T01:49:52.934Z,97805.16
2023-06-13T01:52:35.051Z,97797.47
2023-06-13T01:55:11.650Z,97795.06
2023-06-13T01:57:51.014Z,97789.44
2023-06-13T02:00:22.823Z,97792.53
2023-06-13T02:02:53.523Z,97788.72
2023-06-13T02:05:22.853Z,97803.78
2023-06-13T02:07:54.644Z,97799.75
2023-06-13T02:10:23.930Z,97798.38
2023-06-13T02:12:53.856Z,97796.88
2023-06-13T02:15:22.658Z,97793.44
2023-06-13T02:17:51.797Z,97797.25
2023-06-13T02:20:20.852Z,97793.91
2023-06-13T02:22:49.553Z,97792.41
2023-06-13T02:25:19.248Z,97786.78
2023-06-13T02:27:48.631Z,97799.97
2023-06-13T02:30:19.102Z,97792.75
2023-06-13T02:32:48.235Z,97791.59
2023-06-13T02:35:16.932Z,97789.88
2023-06-13T02:37:46.011Z,97788.03
2023-06-13T02:40:16.521Z,97787.94
2023-06-13T02:42:50.703Z,97785.75
2023-06-13T02:45:21.205Z,97786.88
2023-06-13T02:47:50.916Z,97787.56
2023-06-13T02:50:19.964Z,97777.56
2023-06-13T02:52:52.669Z,97787.09
2023-06-13T02:55:22.523Z,97773.31
2023-06-13T02:57:51.509Z,97782.28
2023-06-13T03:00:21.661Z,97783.31
2023-06-13T03:02:50.826Z,97784.78
2023-06-13T03:05:20.007Z,97786.84
2023-06-13T03:07:49.008Z,97781.31
2023-06-13T03:10:19.778Z,97769.19
2023-06-13T03:12:48.888Z,97782.25
2023-06-13T03:15:18.134Z,97779.03
2023-06-13T03:17:48.516Z,97777.63
2023-06-13T03:20:26.913Z,97780.16
2023-06-13T03:22:56.791Z,97779.00
2023-06-13T03:25:26.098Z,97779.44
2023-06-13T03:27:54.623Z,97786.16
2023-06-13T03:30:23.266Z,97783.16
2023-06-13T03:32:56.783Z,97781.56
2023-06-13T03:35:25.493Z,97782.81
2023-06-13T03:37:54.505Z,97785.31
2023-06-13T03:40:23.584Z,97787.56
2023-06-13T03:42:52.520Z,97799.97
2023-06-13T03:45:21.268Z,97799.81
2023-06-13T03:47:50.278Z,97797.63
2023-06-13T03:50:20.353Z,97802.91
2023-06-13T03:52:49.926Z,97801.28
2023-06-13T03:55:19.936Z,97798.53
2023-06-13T03:57:48.450Z,97805.03
2023-06-13T04:00:18.507Z,97806.28
2023-06-13T04:02:47.313Z,97802.19
2023-06-13T04:05:17.935Z,97802.75
2023-06-13T04:07:48.026Z,97814.09
2023-06-13T04:10:17.289Z,97814.91
2023-06-13T04:12:46.735Z,97815.91
2023-06-13T04:15:16.377Z,97812.50
2023-06-13T04:17:47.701Z,97815.34
2023-06-13T04:20:20.520Z,97816.97
2023-06-13T04:22:51.057Z,97818.00
2023-06-13T04:25:20.538Z,97824.88
2023-06-13T04:27:49.792Z,97823.63
2023-06-13T04:30:18.897Z,97820.78
2023-06-13T04:32:48.593Z,97829.03
2023-06-13T04:35:19.741Z,97823.31
2023-06-13T04:37:50.111Z,97829.16
2023-06-13T04:40:20.151Z,97835.44
2023-06-13T04:42:53.284Z,97840.50
2023-06-13T04:45:23.055Z,97843.72
2023-06-13T04:47:57.862Z,97844.06
2023-06-13T04:50:27.374Z,97843.41
2023-06-13T04:52:58.497Z,97842.63
2023-06-13T04:55:33.578Z,97849.50
2023-06-13T04:58:02.679Z,97843.41
2023-06-13T05:00:31.780Z,97848.25
2023-06-13T05:03:02.443Z,97849.19
2023-06-13T05:05:31.596Z,97852.78
2023-06-13T05:08:04.111Z,97845.00
2023-06-13T05:10:34.040Z,97847.78
2023-06-13T05:13:03.712Z,97855.84
2023-06-13T05:15:32.462Z,97849.06
2023-06-13T05:18:01.712Z,97851.72
2023-06-13T05:20:31.518Z,97853.31
2023-06-13T05:23:04.003Z,97854.94
2023-06-13T05:25:33.636Z,97857.34
2023-06-13T05:28:03.401Z,97854.03
2023-06-13T05:30:32.245Z,97861.03
2023-06-13T05:33:01.233Z,97858.53
2023-06-13T05:35:37.354Z,97858.44
2023-06-13T05:38:14.947Z,97863.41
2023-06-13T05:40:45.679Z,97865.13
2023-06-13T05:43:20.427Z,97862.38
2023-06-13T05:45:49.860Z,97860.44
2023-06-13T05:48:19.392Z,97855.06
2023-06-13T05:50:48.180Z,97856.56
2023-06-13T05:53:18.860Z,97859.31
2023-06-13T05:55:47.334Z,97850.50
2023-06-13T05:58:15.957Z,97855.91
2023-06-13T06:00:46.801Z,97854.41
2023-06-13T06:03:17.344Z,97855.09
2023-06-13T06:05:46.137Z,97863.16
2023-06-13T06:08:14.633Z,97856.94
2023-06-13T06:10:44.636Z,97856.59
2023-06-13T06:13:13.668Z,97865.19
2023-06-13T06:15:42.704Z,97851.63
2023-06-13T06:18:11.611Z,97854.38
2023-06-13T06:20:40.937Z,97852.16
2023-06-13T06:23:09.476Z,97864.00
2023-06-13T06:25:38.622Z,97863.59
2023-06-13T06:28:10.083Z,97858.19
2023-06-13T06:30:39.339Z,97848.53
2023-06-13T06:33:08.503Z,97840.47
2023-06-13T06:35:37.469Z,97843.22
2023-06-13T06:38:06.042Z,97848.38
2023-06-13T06:40:34.567Z,97848.22
2023-06-13T06:43:03.125Z,97855.75
2023-06-13T06:45:33.032Z,97847.69
2023-06-13T06:48:02.997Z,97851.22
2023-06-13T06:50:31.784Z,97847.63
2023-06-13T06:53:00.270Z,97855.66
2023-06-13T06:55:29.349Z,97851.03
2023-06-13T06:57:58.428Z,97850.28
2023-06-13T07:00:27.463Z,97847.47
2023-06-13T07:02:57.490Z,97836.50
2023-06-13T07:05:26.811Z,97841.41
2023-06-13T07:07:55.819Z,97838.81
2023-06-13T07:10:25.461Z,97841.06
2023-06-13T07:12:54.662Z,97835.13
2023-06-13T07:15:23.801Z,97838.19
2023-06-13T07:17:53.321Z,97839.63
2023-06-13T07:20:23.827Z,97834.94
2023-06-13T07:22:52.240Z,97824.19
2023-06-13T07:25:20.837Z,97832.47
2023-06-13T07:27:49.319Z,97831.25
2023-06-13T07:30:18.366Z,97821.50
2023-06-13T07:32:47.592Z,97832.72
2023-06-13T07:35:18.639Z,97842.69
2023-06-13T07:37:49.528Z,97836.13
2023-06-13T07:40:19.168Z,97840.22
2023-06-13T07:42:47.638Z,97834.72
2023-06-13T07:45:16.263Z,97821.53
2023-06-13T07:47:46.137Z,97819.16
2023-06-13T07:50:14.980Z,97819.19
2023-06-13T07:52:43.807Z,97811.53
2023-06-13T07:55:14.111Z,97823.03
2023-06-13T07:57:57.814Z,97814.28
2023-06-13T08:00:28.099Z,97813.31
2023-06-13T08:02:56.872Z,97810.97
2023-06-13T08:05:25.956Z,97809.66
2023-06-13T08:07:54.918Z,97811.25
2023-06-13T08:10:26.656Z,97814.00
2023-06-13T08:12:57.227Z,97811.66
2023-06-13T08:15:25.969Z,97799.25
2023-06-13T08:17:55.955Z,97807.00
2023-06-13T08:20:25.108Z,97800.13
2023-06-13T08:22:54.284Z,97794.31
2023-06-13T08:25:24.369Z,97791.69
2023-06-13T08:27:54.341Z,97791.97
2023-06-13T08:30:24.563Z,97794.41
2023-06-13T08:32:54.405Z,97790.75
2023-06-13T08:35:23.879Z,97786.50
2023-06-13T08:37:52.408Z,97791.63
2023-06-13T08:40:21.688Z,97789.72
2023-06-13T08:42:53.643Z,97784.47
2023-06-13T08:45:24.433Z,97779.44
2023-06-13T08:47:55.317Z,97765.38
2023-06-13T08:50:26.116Z,97779.19
2023-06-13T08:52:58.035Z,97793.00
2023-06-13T08:58:05.878Z,97780.00
2023-06-13T09:00:36.792Z,97786.41
2023-06-13T09:03:10.516Z,97779.75
2023-06-13T09:05:40.621Z,97776.84
2023-06-13T09:08:30.213Z,97784.31
2023-06-13T09:11:01.733Z,97770.81
2023-06-13T09:13:33.643Z,97761.78
2023-06-13T09:16:04.295Z,97764.72
2023-06-13T09:18:38.127Z,97766.38
2023-06-13T09:21:06.963Z,97764.53
2023-06-13T09:23:38.321Z,97766.41
2023-06-13T09:26:08.884Z,97764.03
2023-06-13T09:28:43.666Z,97759.22
2023-06-13T09:31:13.402Z,97755.00
2023-06-13T09:33:45.239Z,97756.06
2023-06-13T09:36:15.231Z,97761.41
2023-06-13T09:38:44.492Z,97756.38
2023-06-13T09:41:15.332Z,97753.44
2023-06-13T09:43:45.277Z,97768.88
2023-06-13T09:46:15.660Z,97775.00
2023-06-13T09:48:47.142Z,97772.31
2023-06-13T09:51:16.032Z,97774.47
2023-06-13T09:53:48.285Z,97777.94
2023-06-13T09:56:17.901Z,97761.94
2023-06-13T09:58:48.442Z,97765.69
2023-06-13T10:01:18.827Z,97762.50
2023-06-13T10:03:47.838Z,97763.81
2023-06-13T10:06:16.403Z,97761.41
2023-06-13T10:08:45.224Z,97758.81
2023-06-13T10:11:16.943Z,97763.59
2023-06-13T10:13:57.835Z,97754.28
2023-06-13T10:16:29.968Z,97761.47
2023-06-13T10:19:03.024Z,97751.34
2023-06-13T10:21:40.348Z,97738.53
2023-06-13T10:24:17.928Z,97741.47
2023-06-13T10:26:48.207Z,97738.81
2023-06-13T10:30:03.921Z,97737.16
2023-06-13T10:32:54.343Z,97740.06
2023-06-13T10:36:04.283Z,97745.38
2023-06-13T10:39:27.317Z,97742.72
2023-06-13T10:42:24.241Z,97738.44
2023-06-13T10:45:03.299Z,97741.66
2023-06-13T10:47:33.325Z,97741.66
2023-06-13T10:50:04.993Z,97724.03
2023-06-13T10:52:33.783Z,97730.97
2023-06-13T10:55:03.130Z,97733.09
2023-06-13T10:57:51.308Z,97728.81
2023-06-13T11:00:29.827Z,97734.97
2023-06-13T11:03:03.125Z,97726.09
2023-06-13T11:05:42.465Z,97726.63
2023-06-13T11:08:16.786Z,97735.38
2023-06-13T11:10:47.319Z,97726.81
2023-06-13T11:13:21.992Z,97717.94
2023-06-13T11:15:55.770Z,97718.19
2023-06-13T11:18:36.395Z,97720.00
2023-06-13T11:21:06.241Z,97715.69
2023-06-13T11:23:49.790Z,97722.59
2023-06-13T11:26:24.157Z,97722.06
2023-06-13T11:28:56.151Z,97711.38
2023-06-13T11:31:27.439Z,97714.09
2023-06-13T11:34:05.182Z,97722.59
2023-06-13T11:36:40.320Z,97719.34
2023-06-13T11:39:13.727Z,97715.06
2023-06-13T11:41:43.688Z,97709.16
2023-06-13T11:44:12.726Z,97714.50
2023-06-13T11:47:01.102Z,97701.38
2023-06-13T11:49:30.132Z,97719.75
2023-06-13T11:51:58.773Z,97715.16
2023-06-13T11:54:31.826Z,97702.03
2023-06-13T11:57:00.350Z,97702.88
2023-06-13T11:59:29.563Z,97711.38
2023-06-13T12:01:59.636Z,97703.31
2023-06-13T12:04:28.892Z,97703.00
2023-06-13T12:06:58.992Z,97698.69
2023-06-13T12:09:29.601Z,97693.28
2023-06-13T12:11:58.564Z,97693.81
2023-06-13T12:14:30.092Z,97688.69
2023-06-13T12:17:00.646Z,97694.78
2023-06-13T12:19:29.233Z,97698.41
2023-06-13T12:22:01.991Z,97694.09
2023-06-13T12:24:33.795Z,97680.72
2023-06-13T12:27:03.945Z,97695.13
2023-06-13T12:29:35.810Z,97683.84
2023-06-13T12:32:07.725Z,97694.09
2023-06-13T12:34:43.011Z,97688.72
2023-06-13T12:37:14.109Z,97684.66
2023-06-13T12:40:08.090Z,97682.78
2023-06-13T12:42:37.343Z,97678.25
2023-06-13T12:45:06.891Z,97678.97
2023-06-13T12:47:37.487Z,97668.00
2023-06-13T12:50:12.805Z,97664.28
2023-06-13T12:52:41.574Z,97672.25
2023-06-13T12:55:10.303Z,97655.63
2023-06-13T12:57:42.275Z,97672.91
2023-06-13T13:00:13.697Z,97663.63
2023-06-13T13:02:44.047Z,97661.31
2023-06-13T13:05:13.089Z,97660.63
2023-06-13T13:07:41.663Z,97655.00
2023-06-13T13:10:11.089Z,97655.44
2023-06-13T13:12:39.614Z,97658.03
2023-06-13T13:15:11.099Z,97659.84
2023-06-13T13:17:39.792Z,97656.50
2023-06-13T13:20:10.977Z,97652.66
2023-06-13T13:22:39.467Z,97641.38
2023-06-13T13:25:09.195Z,97634.94
2023-06-13T13:27:37.633Z,97635.44
2023-06-13T13:30:08.238Z,97636.94
2023-06-13T13:32:37.026Z,97636.81
2023-06-13T13:35:06.227Z,97635.31
2023-06-13T13:37:36.154Z,97624.53
2023-06-13T13:40:06.227Z,97620.25
2023-06-13T13:42:38.001Z,97622.06
2023-06-13T13:45:08.854Z,97612.63
2023-06-13T13:47:38.485Z,97617.13
2023-06-13T13:50:09.944Z,97619.00
2023-06-13T13:52:40.431Z,97596.56
2023-06-13T13:55:11.746Z,97597.78
2023-06-13T13:57:40.191Z,97605.34
2023-06-13T14:00:10.543Z,97598.97
2023-06-13T14:02:39.202Z,97602.38
2023-06-13T14:05:08.660Z,97600.59
2023-06-13T14:07:37.237Z,97594.03
2023-06-13T14:10:08.757Z,97594.41
2023-06-13T14:12:37.261Z,97591.13
2023-06-13T14:15:06.870Z,97582.19
2023-06-13T14:17:35.682Z,97592.31
2023-06-13T14:20:05.462Z,97590.72
2023-06-13T14:22:34.461Z,97589.84
2023-06-13T14:25:03.701Z,97584.34
2023-06-13T14:27:33.696Z,97594.06
2023-06-13T14:30:16.704Z,97593.16
2023-06-13T14:32:46.932Z,97592.00
2023-06-13T14:35:17.454Z,97587.78
2023-06-13T14:37:46.321Z,97580.41
2023-06-13T14:40:15.835Z,97583.47
2023-06-13T14:42:46.616Z,97580.16
2023-06-13T14:45:15.558Z,97579.94
2023-06-13T14:47:44.855Z,97583.34
2023-06-13T14:50:15.306Z,97579.13
2023-06-13T14:52:44.535Z,97578.97
2023-06-13T14:55:14.096Z,97571.25
2023-06-13T14:57:43.803Z,97572.59
2023-06-13T15:00:15.338Z,97559.22
2023-06-13T15:02:44.134Z,97573.38
2023-06-13T15:05:12.740Z,97569.00
2023-06-13T15:07:42.174Z,97562.44
2023-06-13T15:10:10.944Z,97554.09
2023-06-13T15:12:39.397Z,97551.41
2023-06-13T15:15:10.256Z,97541.91
2023-06-13T15:17:40.188Z,97545.25
2023-06-13T15:20:11.233Z,97540.50
2023-06-13T15:22:39.680Z,97544.16
2023-06-13T15:25:09.284Z,97540.84
2023-06-13T15:27:39.505Z,97547.50
2023-06-13T15:30:10.306Z,97539.31
2023-06-13T15:32:41.977Z,97542.94
2023-06-13T15:35:11.089Z,97545.34
2023-06-13T15:37:40.284Z,97537.25
2023-06-13T15:40:09.693Z,97537.69
2023-06-13T15:42:39.179Z,97532.03
2023-06-13T15:45:11.334Z,97533.75
2023-06-13T15:47:41.236Z,97538.66
2023-06-13T15:50:11.644Z,97547.38
2023-06-13T15:52:40.240Z,97543.09
2023-06-13T15:55:09.107Z,97534.88
2023-06-13T15:57:37.618Z,97540.09
2023-06-13T16:00:09.637Z,97535.19
2023-06-13T16:02:38.943Z,97542.56
2023-06-13T16:05:10.279Z,97537.06
2023-06-13T16:07:41.296Z,97530.59
2023-06-13T16:10:11.717Z,97523.44
2023-06-13T16:12:40.106Z,97516.13
2023-06-13T16:15:09.604Z,97519.16
2023-06-13T16:17:38.154Z,97525.34
2023-06-13T16:20:10.013Z,97515.97
2023-06-13T16:22:38.737Z,97517.25
2023-06-13T16:25:08.963Z,97528.47
2023-06-13T16:27:37.418Z,97521.50
2023-06-13T16:30:07.396Z,97522.31
2023-06-13T16:32:36.568Z,97525.50
2023-06-13T16:35:10.598Z,97519.94
2023-06-13T16:37:41.980Z,97524.38
2023-06-13T16:40:11.595Z,97514.72
2023-06-13T16:42:40.419Z,97521.22
2023-06-13T16:45:09.560Z,97516.66
2023-06-13T16:47:39.064Z,97528.22
2023-06-13T16:50:09.770Z,97524.41
2023-06-13T16:52:39.591Z,97525.53
2023-06-13T16:55:08.870Z,97522.97
2023-06-13T16:57:37.316Z,97523.78
2023-06-13T17:00:08.599Z,97510.63
2023-06-13T17:02:37.707Z,97519.94
2023-06-13T17:05:07.198Z,97524.53
2023-06-13T17:07:35.868Z,97527.69
2023-06-13T17:10:06.242Z,97521.53
2023-06-13T17:12:35.470Z,97518.22
2023-06-13T17:15:04.586Z,97525.50
2023-06-13T17:17:34.132Z,97521.69
2023-06-13T17:20:02.637Z,97520.09
2023-06-13T17:22:31.870Z,97529.78
2023-06-13T17:25:00.588Z,97530.72
2023-06-13T17:27:30.526Z,97533.09
2023-06-13T17:29:59.493Z,97535.50
2023-06-13T17:32:29.209Z,97533.28
2023-06-13T17:34:57.786Z,97533.88
2023-06-13T17:37:26.351Z,97547.78
2023-06-13T17:39:55.014Z,97538.75
2023-06-13T17:42:24.756Z,97539.84
2023-06-13T17:44:54.549Z,97547.25
2023-06-13T17:47:23.154Z,97552.09
2023-06-13T17:49:51.650Z,97553.00
2023-06-13T17:52:20.176Z,97547.44
2023-06-13T17:54:49.053Z,97545.03
2023-06-13T17:57:17.740Z,97544.50
2023-06-13T17:59:46.459Z,97551.09
2023-06-13T18:02:17.135Z,97550.38
2023-06-13T18:04:45.685Z,97551.84
2023-06-13T18:07:14.128Z,97547.69
2023-06-13T18:09:51.075Z,97548.94
2023-06-13T18:12:22.216Z,97555.22
2023-06-13T18:14:51.446Z,97554.03
2023-06-13T18:17:21.331Z,97554.97
2023-06-13T18:19:51.829Z,97558.56
2023-06-13T18:22:20.888Z,97557.59
2023-06-13T18:24:50.135Z,97559.78
2023-06-13T18:27:19.166Z,97562.53
2023-06-13T18:29:47.894Z,97556.19
2023-06-13T18:32:17.177Z,97562.28
2023-06-13T18:34:47.055Z,97556.75
2023-06-13T18:37:16.450Z,97568.38
2023-06-13T18:39:44.908Z,97561.03
2023-06-13T18:42:13.373Z,97566.81
2023-06-13T18:44:42.723Z,97560.75
2023-06-13T18:47:11.904Z,97570.78
2023-06-13T18:49:40.661Z,97560.47
2023-06-13T18:52:10.989Z,97563.03
2023-06-13T18:54:41.855Z,97578.34
2023-06-13T18:57:10.774Z,97577.63
2023-06-13T18:59:39.939Z,97575.34
2023-06-13T19:02:08.901Z,97572.84
2023-06-13T19:04:39.308Z,97581.78
2023-06-13T19:07:10.222Z,97582.28
2023-06-13T19:09:39.259Z,97581.69
2023-06-13T19:12:10.970Z,97586.13
2023-06-13T19:14:39.646Z,97584.97
2023-06-13T19:17:08.739Z,97588.69
2023-06-13T19:19:38.079Z,97590.44
2023-06-13T19:22:09.530Z,97605.06
2023-06-13T19:24:38.195Z,97593.72
2023-06-13T19:27:08.555Z,97603.00
2023-06-13T19:29:38.001Z,97603.09
2023-06-13T19:32:08.058Z,97602.75
2023-06-13T19:34:37.376Z,97610.91
2023-06-13T19:37:06.579Z,97615.59
2023-06-13T19:39:36.830Z,97613.31
2023-06-13T19:42:06.978Z,97623.34
2023-06-13T19:44:35.621Z,97625.28
2023-06-13T19:47:04.224Z,97623.72
2023-06-13T19:49:32.716Z,97627.28
2023-06-13T19:52:01.347Z,97630.03
2023-06-13T19:54:30.231Z,97637.03
2023-06-13T19:57:01.596Z,97643.59
2023-06-13T19:59:30.137Z,97642.31
2023-06-13T20:01:59.933Z,97645.06
2023-06-13T20:04:28.926Z,97657.97
2023-06-13T20:06:57.561Z,97657.75
2023-06-13T20:09:26.045Z,97657.53
2023-06-13T20:11:54.571Z,97657.06
2023-06-13T20:14:24.440Z,97663.78
2023-06-13T20:16:54.550Z,97663.81
2023-06-13T20:19:23.117Z,97665.19
2023-06-13T20:21:51.721Z,97668.75
2023-06-13T20:24:20.867Z,97673.03
2023-06-13T20:26:49.841Z,97677.06
2023-06-13T20:29:18.446Z,97677.09
2023-06-13T20:31:48.762Z,97674.47
2023-06-13T20:34:18.082Z,97676.06
2023-06-13T20:36:47.268Z,97679.28
2023-06-13T20:39:16.241Z,97680.13
2023-06-13T20:41:44.809Z,97683.13
2023-06-13T20:44:13.286Z,97683.13
2023-06-13T20:46:42.164Z,97691.66
2023-06-13T20:49:12.498Z,97693.81
2023-06-13T20:51:51.794Z,97707.13
2023-06-13T20:54:21.373Z,97698.63
2023-06-13T20:56:50.584Z,97708.16
2023-06-13T20:59:19.231Z,97702.31
2023-06-13T21:01:54.635Z,97704.47
2023-06-13T21:04:25.043Z,97713.22
2023-06-13T21:06:54.289Z,97711.88
2023-06-13T21:09:29.345Z,97713.75
2023-06-13T21:11:57.827Z,97714.03
2023-06-13T21:14:26.293Z,97717.22
2023-06-13T21:16:56.587Z,97717.72
2023-06-13T21:19:28.725Z,97714.25
2023-06-13T21:21:57.433Z,97710.25
2023-06-13T21:24:27.565Z,97716.59
2023-06-13T21:26:56.272Z,97719.50
2023-06-13T21:29:24.859Z,97719.47
2023-06-13T21:31:53.560Z,97719.16
2023-06-13T21:34:22.138Z,97722.06
2023-06-13T21:36:53.397Z,97725.47
2023-06-13T21:39:21.983Z,97719.59
2023-06-13T21:41:50.451Z,97728.84
2023-06-13T21:44:19.757Z,97721.13
2023-06-13T21:46:48.379Z,97720.81
2023-06-13T21:49:16.899Z,97720.78
2023-06-13T21:51:45.360Z,97719.94
2023-06-13T21:54:15.475Z,97716.94
2023-06-13T21:56:44.143Z,97719.59
2023-06-13T21:59:12.574Z,97722.47
2023-06-13T22:01:42.932Z,97719.75
2023-06-13T22:04:12.214Z,97715.47
2023-06-13T22:06:41.841Z,97717.56
2023-06-13T22:09:12.103Z,97723.88
2023-06-13T22:11:42.158Z,97723.28
2023-06-13T22:14:12.244Z,97721.91
2023-06-13T22:16:41.714Z,97722.88
2023-06-13T22:19:11.293Z,97727.88
2023-06-13T22:21:41.636Z,97729.69
2023-06-13T22:24:11.606Z,97729.84
2023-06-13T22:26:41.606Z,97730.59
2023-06-13T22:29:10.618Z,97736.72
2023-06-13T22:31:39.439Z,97737.69
2023-06-13T22:34:08.307Z,97736.03
2023-06-13T22:36:38.949Z,97737.84
2023-06-13T22:39:07.639Z,97734.91
2023-06-13T22:41:36.251Z,97735.41
2023-06-13T22:44:07.531Z,97737.44
2023-06-13T22:46:37.100Z,97738.41
2023-06-13T22:49:06.644Z,97738.88
2023-06-13T22:51:38.217Z,97740.41
2023-06-13T22:54:07.222Z,97740.91
2023-06-13T22:56:36.238Z,97743.75
2023-06-13T22:59:06.195Z,97751.88
2023-06-13T23:01:35.584Z,97749.16
2023-06-13T23:04:05.134Z,97750.94
2023-06-13T23:06:34.978Z,97751.69
2023-06-13T23:09:03.502Z,97748.16
2023-06-13T23:11:32.382Z,97750.41
2023-06-13T23:14:01.296Z,97748.47
2023-06-13T23:16:32.776Z,97740.28
2023-06-13T23:19:01.402Z,97749.75
2023-06-13T23:21:30.422Z,97742.22
2023-06-13T23:23:59.570Z,97751.16
2023-06-13T23:26:31.634Z,97749.47
2023-06-13T23:29:01.976Z,97742.56
2023-06-13T23:31:32.745Z,97743.28
2023-06-13T23:34:01.674Z,97743.22
2023-06-13T23:36:30.205Z,97746.59
2023-06-13T23:38:59.715Z,97746.75
2023-06-13T23:41:29.531Z,97745.63
2023-06-13T23:43:58.084Z,97738.88
2023-06-13T23:46:26.695Z,97740.44
2023-06-13T23:48:56.672Z,97738.72
2023-06-13T23:51:25.966Z,97747.41
2023-06-13T23:53:54.582Z,97745.38
2023-06-13T23:56:23.605Z,97745.81
2023-06-13T23:58:52.112Z,97746.28
